Pagrindinis puslapis
METAR-TAF:

METAR-TAF

Oro uostai :

Burlengė, Švedija

platuma: 60-26N, ilguma: 015-31E, Aukštis: 145 m

Dabartinis oras

Ataskaita buvo paskelbta 22 minutes, ne 05:50 UTC
Vėjas 8 kt iš Vakarų
Temperatūra 14°C
Drėgmė 72%
Slėgis 1005 hPa
Matomumas 10 km arba daugiau

METAR: ESSD 190550Z AUTO 28008KT 9999 FEW018/// 14/09 Q1005

Laikas: 08:12 (06:12 UTC)

Prognozė

Ataskaita buvo paskelbta 42 minutes, ne 05:30 UTC
Prognozė galioja nuo 19 metu 06 UTC su 19 metu 15 UTC
Vėjas 9 kt iš Vakarų
Matomumas 10 km arba daugiau
Su prošvaistėmis ne aukštis 1700 ft
Laikinai
nuo 19 metu 12 UTC su 19 metu 15 UTC
Išsisklaidę debesys ne aukštis 4000 ft, Liūtiniai kamuoliniai debesys.

TAF: ESSD 190530Z 1906/1915 26009KT 9999 BKN017 TEMPO 1912/1915 SCT040CB

Orai ataskaitas ir orų prognozės (METAR, TAF).

turimą stotys yra geltonos ir raudonos taškus žemėlapyje.

Perkelti pele per norėdami pamatyti stoties vardą.

Tada spustelėkite, norėdami matyti oro stebėjimo ir prognozės.

Norėdami pakeisti žemėlapį: spustelėkite ant žalios mygtukų su juodo kryžiaus žemyn,; žalią mygtuką su brūkšneliu, jei norite nutolinti; arba žalių rodyklių gretimoms žemėlapius.


METAR-TAF: